Time;durP1;ratioP1;P1;durP2;ratioP2;P2;SDS_P1;SDS_P2;PMS_P1;PMS_P2;Temp;Humidity;BMP_temperature;BMP_pressure;BME280_temperature;BME280_humidity;BME280_pressure;Samples;Min_cycle;Max_cycle;Signal;HPM_P1;HPM_P2
2023/03/09 05:05:08;;;;;;;2.17;0.82;;;9.90;99.90;;;;;;5597419;22;20220;-67
2023/03/09 05:07:34;;;;;;;3.58;0.80;;;9.90;99.90;;;;;;5072480;28;20183;-67
2023/03/09 05:09:59;;;;;;;3.13;1.03;;;9.90;99.90;;;;;;5074153;28;20168;-68
2023/03/09 05:12:31;;;;;;;3.63;1.10;;;9.80;99.90;;;;;;5074500;28;20398;-68
2023/03/09 05:14:57;;;;;;;4.70;1.10;;;9.80;99.90;;;;;;5073154;28;20265;-68
2023/03/09 05:17:23;;;;;;;1.40;0.95;;;9.80;99.90;;;;;;5073794;28;20252;-68
2023/03/09 05:19:49;;;;;;;2.10;0.83;;;9.80;99.90;;;;;;5073925;28;20588;-69
2023/03/09 05:22:16;;;;;;;4.77;1.97;;;9.80;99.90;;;;;;5073475;28;20411;-68
2023/03/09 05:24:41;;;;;;;2.45;1.08;;;9.90;99.90;;;;;;5073112;28;20193;-68
2023/03/09 05:27:07;;;;;;;2.43;1.00;;;9.90;99.90;;;;;;5072503;28;20226;-68
2023/03/09 05:29:32;;;;;;;2.77;1.17;;;9.90;99.90;;;;;;5073584;28;20161;-68
2023/03/09 05:31:58;;;;;;;4.30;1.13;;;9.80;99.90;;;;;;5073448;28;20555;-68
2023/03/09 05:34:24;;;;;;;5.83;0.87;;;9.80;99.90;;;;;;5071905;28;20181;-68
2023/03/09 05:36:49;;;;;;;0.83;0.83;;;9.80;99.90;;;;;;5073213;28;20165;-68
2023/03/09 05:39:15;;;;;;;3.80;1.47;;;9.80;99.90;;;;;;5072264;28;20177;-67
2023/03/09 05:41:41;;;;;;;1.13;1.13;;;9.80;99.90;;;;;;5073011;28;20507;-67
2023/03/09 05:44:07;;;;;;;0.83;0.60;;;9.90;99.90;;;;;;5072343;28;20270;-67
2023/03/09 05:46:32;;;;;;;0.90;0.90;;;9.90;99.90;;;;;;5072670;28;20212;-67
2023/03/09 05:48:58;;;;;;;1.33;0.80;;;9.90;99.90;;;;;;5074052;28;20168;-67
2023/03/09 05:51:23;;;;;;;1.10;1.00;;;9.90;99.90;;;;;;5073014;28;20165;-67
2023/03/09 05:53:49;;;;;;;1.77;1.20;;;9.90;99.90;;;;;;5072805;28;20802;-68
2023/03/09 05:56:14;;;;;;;1.60;1.17;;;9.90;99.90;;;;;;5073129;28;20171;-67
2023/03/09 05:58:40;;;;;;;0.70;0.70;;;10.00;99.90;;;;;;5073102;28;20176;-69
2023/03/09 06:01:19;;;;;;;0.83;0.83;;;10.00;99.90;;;;;;5072838;28;20177;-68
2023/03/09 06:03:45;;;;;;;1.98;0.90;;;10.00;99.90;;;;;;5072221;28;20180;-68
2023/03/09 06:06:11;;;;;;;1.80;1.00;;;10.00;99.90;;;;;;5071620;28;20296;-68
2023/03/09 06:08:36;;;;;;;0.87;0.83;;;9.90;99.90;;;;;;5072719;28;20188;-67
2023/03/09 06:11:02;;;;;;;1.90;1.47;;;9.90;99.90;;;;;;5072954;28;20835;-67
2023/03/09 06:13:28;;;;;;;2.40;1.00;;;9.90;99.90;;;;;;5072490;28;20176;-67
2023/03/09 06:15:53;;;;;;;1.67;1.00;;;9.90;99.90;;;;;;5071872;28;20265;-65
2023/03/09 06:18:20;;;;;;;0.77;0.77;;;9.90;99.90;;;;;;5070449;28;20431;-67
2023/03/09 06:20:46;;;;;;;0.90;0.90;;;10.00;99.90;;;;;;5070947;28;20185;-68
2023/03/09 06:23:12;;;;;;;2.42;0.98;;;10.00;99.90;;;;;;5070458;28;20185;-67
2023/03/09 06:25:38;;;;;;;1.13;1.03;;;10.00;99.90;;;;;;5070559;28;20208;-65
2023/03/09 06:28:04;;;;;;;2.10;0.98;;;10.10;99.90;;;;;;5070691;28;20233;-67
2023/03/09 06:30:30;;;;;;;1.70;1.00;;;10.20;99.90;;;;;;5070383;28;20259;-67
2023/03/09 06:32:56;;;;;;;1.27;1.20;;;10.30;99.90;;;;;;5071980;28;20176;-68
2023/03/09 06:35:25;;;;;;;1.70;1.02;;;10.50;99.90;;;;;;5075370;28;20194;-71
2023/03/09 06:37:50;;;;;;;1.40;0.77;;;10.70;99.90;;;;;;5076292;28;20182;-70
2023/03/09 06:40:17;;;;;;;1.20;0.63;;;11.10;99.90;;;;;;5077316;28;20254;-70
2023/03/09 06:42:43;;;;;;;3.87;1.50;;;11.20;99.90;;;;;;5076531;28;20163;-69
2023/03/09 06:45:09;;;;;;;1.13;0.85;;;11.30;99.90;;;;;;5075521;28;20495;-67
2023/03/09 06:47:35;;;;;;;2.08;1.23;;;11.30;99.90;;;;;;5076726;28;20529;-67
2023/03/09 06:50:01;;;;;;;1.10;1.00;;;11.20;99.90;;;;;;5076678;28;20254;-67
2023/03/09 06:52:26;;;;;;;1.10;1.00;;;11.20;99.90;;;;;;5076252;28;20174;-65
2023/03/09 06:54:52;;;;;;;1.00;0.93;;;11.30;99.90;;;;;;5074759;28;20187;-66
2023/03/09 06:57:18;;;;;;;1.60;1.13;;;11.40;99.90;;;;;;5077062;28;20168;-67
2023/03/09 06:59:44;;;;;;;3.07;1.30;;;11.40;99.90;;;;;;5077429;28;20498;-67
2023/03/09 07:02:14;;;;;;;0.80;0.80;;;11.40;99.90;;;;;;5077001;28;20257;-66
2023/03/09 07:04:41;;;;;;;1.23;0.90;;;11.40;99.90;;;;;;5075097;28;20449;-67
2023/03/09 07:07:08;;;;;;;0.83;0.83;;;11.50;99.90;;;;;;5075552;28;20512;-67
2023/03/09 07:09:34;;;;;;;0.90;0.90;;;11.50;99.90;;;;;;5076613;28;20479;-66
2023/03/09 07:12:00;;;;;;;1.67;0.90;;;11.60;99.90;;;;;;5076219;28;20407;-67
2023/03/09 07:14:26;;;;;;;0.87;0.60;;;11.60;99.90;;;;;;5075529;28;20815;-66
2023/03/09 07:16:54;;;;;;;2.77;0.90;;;11.60;99.90;;;;;;5076207;28;20413;-66
2023/03/09 07:19:20;;;;;;;1.00;1.00;;;11.50;99.90;;;;;;5075581;28;20554;-67
2023/03/09 07:21:45;;;;;;;3.17;1.20;;;11.60;99.90;;;;;;5075788;28;20907;-68
2023/03/09 07:24:11;;;;;;;2.50;1.60;;;11.70;99.90;;;;;;5075616;28;20513;-67
2023/03/09 07:26:37;;;;;;;5.87;2.33;;;11.80;99.90;;;;;;5072646;28;20687;-68
2023/03/09 07:29:02;;;;;;;5.27;4.00;;;12.00;99.90;;;;;;5069756;28;20179;-69
2023/03/09 07:31:29;;;;;;;5.90;3.17;;;12.00;99.90;;;;;;5075173;28;20167;-69
2023/03/09 07:33:55;;;;;;;5.03;1.87;;;12.10;99.90;;;;;;5075174;28;20434;-68
2023/03/09 07:36:21;;;;;;;9.10;6.47;;;12.10;99.90;;;;;;5075445;28;20415;-69
2023/03/09 07:38:47;;;;;;;2.70;1.80;;;12.20;99.90;;;;;;5075048;28;20917;-68
2023/03/09 07:41:13;;;;;;;4.60;1.50;;;12.20;99.90;;;;;;5074240;28;20176;-68
2023/03/09 07:43:43;;;;;;;3.43;1.83;;;12.60;99.90;;;;;;5073846;28;20517;-69
2023/03/09 07:46:15;;;;;;;0.87;0.80;;;12.90;99.90;;;;;;5074775;28;20457;-69
2023/03/09 07:48:42;;;;;;;3.90;1.20;;;13.40;99.90;;;;;;5074834;28;20879;-69
2023/03/09 07:51:09;;;;;;;0.70;0.70;;;14.00;99.90;;;;;;5075197;28;20400;-68
2023/03/09 07:53:36;;;;;;;1.00;0.63;;;14.20;99.90;;;;;;5074757;28;20404;-69
2023/03/09 07:56:03;;;;;;;0.80;0.60;;;14.10;99.90;;;;;;5075410;28;20787;-69
2023/03/09 07:58:33;;;;;;;1.70;0.77;;;13.90;99.90;;;;;;5075073;28;20417;-69
2023/03/09 08:01:00;;;;;;;1.10;0.70;;;13.70;99.90;;;;;;5074223;28;20415;-67
2023/03/09 08:03:27;;;;;;;0.80;0.80;;;13.50;99.90;;;;;;5074233;28;20403;-69
2023/03/09 08:05:55;;;;;;;0.90;0.63;;;13.30;99.90;;;;;;5073073;28;20523;-69
2023/03/09 08:08:25;;;;;;;1.37;0.87;;;13.20;99.90;;;;;;5075017;28;20460;-71
2023/03/09 08:10:52;;;;;;;1.80;0.77;;;13.20;99.90;;;;;;5075028;28;20511;-69
2023/03/09 08:13:20;;;;;;;1.60;0.80;;;13.20;99.90;;;;;;5074604;28;20414;-71
2023/03/09 08:15:46;;;;;;;1.37;0.60;;;13.40;99.90;;;;;;5074564;28;20550;-70
2023/03/09 08:18:12;;;;;;;2.20;0.90;;;13.60;99.90;;;;;;5074909;28;20411;-70
2023/03/09 08:20:38;;;;;;;0.60;0.60;;;13.70;99.90;;;;;;5074853;28;20563;-72
2023/03/09 08:23:04;;;;;;;1.20;0.90;;;13.80;99.90;;;;;;5074214;28;20579;-72
2023/03/09 08:25:31;;;;;;;2.93;0.77;;;13.90;99.90;;;;;;5073901;28;20450;-71
2023/03/09 08:27:57;;;;;;;0.87;0.73;;;14.00;99.90;;;;;;5073937;28;20453;-72
2023/03/09 08:30:24;;;;;;;0.50;0.50;;;14.50;99.90;;;;;;5074665;28;20502;-72
2023/03/09 08:32:52;;;;;;;3.30;0.90;;;14.90;99.90;;;;;;5074072;28;20398;-71
2023/03/09 08:35:19;;;;;;;2.37;0.80;;;15.10;99.90;;;;;;5073964;28;20421;-71
2023/03/09 08:37:46;;;;;;;2.10;0.70;;;15.20;99.90;;;;;;5074120;28;20891;-71
2023/03/09 08:40:12;;;;;;;1.60;1.00;;;15.30;99.90;;;;;;5074559;28;20405;-71
2023/03/09 08:42:38;;;;;;;7.43;1.43;;;15.20;99.90;;;;;;5073676;28;20450;-71
2023/03/09 08:45:05;;;;;;;2.00;0.57;;;15.30;99.90;;;;;;5080932;28;20499;-72
2023/03/09 08:47:31;;;;;;;1.70;1.50;;;15.30;99.90;;;;;;5072594;28;20174;-71
2023/03/09 08:49:57;;;;;;;2.23;0.80;;;15.10;99.90;;;;;;5072258;28;20828;-70
2023/03/09 08:52:23;;;;;;;0.83;0.63;;;14.90;99.90;;;;;;5073653;28;20434;-71
2023/03/09 08:54:50;;;;;;;1.83;0.73;;;14.80;99.90;;;;;;5073149;28;20431;-71
2023/03/09 08:57:16;;;;;;;0.53;0.53;;;14.60;99.90;;;;;;5072091;28;20466;-70
2023/03/09 08:59:42;;;;;;;1.23;0.53;;;14.40;99.90;;;;;;5072085;28;20448;-71
2023/03/09 09:02:13;;;;;;;1.03;0.97;;;14.20;99.90;;;;;;5072981;28;20207;-71
2023/03/09 09:04:43;;;;;;;0.70;0.70;;;14.10;99.90;;;;;;5073003;28;20205;-72
2023/03/09 09:07:08;;;;;;;1.37;0.93;;;14.10;99.90;;;;;;5072940;28;20458;-72
2023/03/09 09:09:34;;;;;;;3.63;1.20;;;14.20;99.90;;;;;;5073290;28;20489;-71
2023/03/09 09:12:00;;;;;;;3.33;0.73;;;14.20;99.90;;;;;;5072790;28;20211;-71
2023/03/09 09:14:26;;;;;;;0.80;0.73;;;14.20;99.90;;;;;;5072641;28;20675;-71
2023/03/09 09:16:51;;;;;;;3.03;1.00;;;14.00;99.90;;;;;;5072820;28;20181;-71
2023/03/09 09:19:18;;;;;;;0.70;0.70;;;13.90;99.90;;;;;;5072890;28;20838;-70
2023/03/09 09:21:43;;;;;;;1.80;0.77;;;13.50;99.90;;;;;;5072824;28;20199;-70
2023/03/09 09:24:09;;;;;;;0.77;0.77;;;13.40;99.90;;;;;;5072228;28;20443;-71
2023/03/09 09:26:35;;;;;;;1.20;1.10;;;13.20;99.90;;;;;;5072715;28;20199;-72
2023/03/09 09:29:01;;;;;;;4.00;0.90;;;13.00;99.90;;;;;;5067356;28;20183;-71
2023/03/09 09:31:28;;;;;;;0.93;0.93;;;13.00;99.90;;;;;;5053353;28;20681;-70
2023/03/09 09:33:53;;;;;;;0.93;0.93;;;13.00;99.90;;;;;;5059298;28;20426;-70
2023/03/09 09:36:20;;;;;;;0.80;0.80;;;13.80;99.90;;;;;;5072592;28;20417;-71
2023/03/09 09:38:46;;;;;;;0.53;0.50;;;14.40;99.90;;;;;;5072791;28;20492;-69
2023/03/09 09:41:21;;;;;;;1.80;0.60;;;14.80;99.90;;;;;;5072399;28;20508;-69
2023/03/09 09:43:50;;;;;;;0.90;0.80;;;15.20;99.90;;;;;;5072479;28;20425;-70
2023/03/09 09:46:20;;;;;;;2.00;0.60;;;15.50;99.90;;;;;;5072728;28;20458;-69
2023/03/09 09:48:46;;;;;;;5.30;0.87;;;15.50;99.90;;;;;;5072462;28;20378;-68
2023/03/09 09:51:24;;;;;;;4.17;0.70;;;15.50;99.90;;;;;;5072110;28;20476;-71
2023/03/09 09:54:06;;;;;;;1.13;0.80;;;15.30;99.90;;;;;;5071981;28;20468;-71
2023/03/09 09:56:51;;;;;;;5.23;1.10;;;15.00;99.90;;;;;;5072333;28;20448;-72
2023/03/09 09:59:30;;;;;;;1.60;1.37;;;14.80;99.90;;;;;;5074332;28;20958;-71
2023/03/09 10:02:09;;;;;;;0.77;0.70;;;14.70;99.90;;;;;;5069962;28;20425;-71
2023/03/09 10:04:46;;;;;;;1.17;0.60;;;14.50;99.90;;;;;;5071867;28;20519;-71
2023/03/09 10:07:18;;;;;;;0.60;0.60;;;14.20;99.90;;;;;;5071884;28;20406;-71
2023/03/09 10:09:48;;;;;;;2.20;0.63;;;14.10;99.90;;;;;;5075658;28;20415;-71
2023/03/09 10:12:16;;;;;;;2.37;0.70;;;13.80;99.90;;;;;;5076241;28;20426;-71
2023/03/09 10:14:44;;;;;;;2.00;0.70;;;13.70;99.90;;;;;;5076368;28;20442;-75
2023/03/09 10:17:30;;;;;;;1.13;1.00;;;13.60;99.90;;;;;;5076106;28;20450;-71
2023/03/09 10:20:08;;;;;;;1.80;0.83;;;13.60;99.90;;;;;;5075512;28;20445;-70
2023/03/09 10:22:34;;;;;;;3.30;0.70;;;13.60;99.90;;;;;;5074940;28;20432;-71
2023/03/09 10:25:00;;;;;;;1.43;0.50;;;13.70;99.90;;;;;;5075687;28;20529;-73
2023/03/09 10:27:42;;;;;;;1.80;0.63;;;13.80;99.90;;;;;;5075786;28;20420;-72
2023/03/09 10:30:21;;;;;;;0.87;0.70;;;13.90;99.90;;;;;;5059558;28;20203;-64
2023/03/09 10:32:53;;;;;;;0.50;0.50;;;14.00;99.90;;;;;;5076008;28;20415;-71
2023/03/09 10:35:43;;;;;;;1.33;1.10;;;14.00;99.90;;;;;;5075665;28;20471;-72
2023/03/09 10:38:20;;;;;;;0.60;0.60;;;14.10;99.90;;;;;;5073889;28;20438;-73
2023/03/09 10:40:52;;;;;;;0.80;0.80;;;14.20;99.90;;;;;;5073999;28;20427;-74
2023/03/09 10:43:30;;;;;;;1.17;0.60;;;14.20;99.90;;;;;;5063034;28;20422;-73
2023/03/09 10:46:15;;;;;;;1.70;0.83;;;14.30;99.90;;;;;;5057304;28;20810;-72
2023/03/09 10:48:42;;;;;;;0.97;0.90;;;14.50;99.90;;;;;;5058332;28;20927;-72
2023/03/09 10:51:39;;;;;;;1.10;1.00;;;14.70;99.90;;;;;;5075280;28;20468;-72
2023/03/09 10:54:28;;;;;;;0.40;0.40;;;15.10;99.90;;;;;;5074900;28;20442;-71
2023/03/09 10:56:54;;;;;;;0.70;0.70;;;15.30;99.90;;;;;;5073845;28;21019;-72
2023/03/09 10:59:22;;;;;;;0.63;0.60;;;15.50;99.90;;;;;;5075320;28;20414;-74
2023/03/09 11:01:51;;;;;;;0.97;0.80;;;15.60;99.90;;;;;;5075675;28;20429;-75
2023/03/09 11:04:34;;;;;;;8.53;5.60;;;15.80;99.90;;;;;;5074984;28;20446;-73
2023/03/09 11:07:17;;;;;;;0.93;0.90;;;16.40;99.90;;;;;;5074447;28;20951;-73
2023/03/09 11:09:42;;;;;;;0.90;0.90;;;16.70;99.90;;;;;;5076215;28;20414;-72
2023/03/09 11:12:30;;;;;;;0.63;0.63;;;17.00;99.90;;;;;;5074478;28;20423;-72
2023/03/09 11:14:59;;;;;;;1.50;1.20;;;17.40;99.90;;;;;;5064225;28;20215;-74
2023/03/09 11:17:45;;;;;;;6.90;4.53;;;18.10;99.30;;;;;;5075688;28;20424;-73
2023/03/09 11:20:38;;;;;;;4.00;3.20;;;18.30;97.70;;;;;;5071679;28;20429;-73
2023/03/09 11:23:28;;;;;;;1.60;0.97;;;17.90;96.90;;;;;;5075250;28;20429;-72
2023/03/09 11:26:18;;;;;;;0.70;0.60;;;17.70;97.60;;;;;;5063598;28;20459;-71
2023/03/09 11:28:47;;;;;;;1.20;1.10;;;17.50;97.90;;;;;;5075073;28;20537;-69
2023/03/09 11:31:22;;;;;;;0.50;0.50;;;17.40;97.30;;;;;;5075164;28;20419;-70
2023/03/09 11:33:52;;;;;;;4.33;1.37;;;17.30;97.30;;;;;;5075087;28;20468;-69
2023/03/09 11:36:24;;;;;;;0.97;0.70;;;17.00;97.10;;;;;;5073846;28;20423;-74
2023/03/09 11:38:50;;;;;;;1.40;1.13;;;16.80;97.40;;;;;;5074141;28;21006;-72
2023/03/09 11:41:29;;;;;;;0.67;0.67;;;16.80;97.50;;;;;;5074875;28;20502;-71
2023/03/09 11:44:30;;;;;;;1.53;0.70;;;16.70;97.80;;;;;;5074800;28;20800;-72
2023/03/09 11:47:02;;;;;;;0.80;0.60;;;16.60;97.80;;;;;;5052403;28;20536;-74
2023/03/09 11:49:29;;;;;;;1.27;0.90;;;16.40;97.00;;;;;;5075492;28;20910;-73
2023/03/09 11:51:57;;;;;;;1.30;0.90;;;16.30;97.10;;;;;;5074066;28;20754;-71
2023/03/09 11:54:44;;;;;;;3.10;0.70;;;16.10;97.20;;;;;;5072844;28;21037;-72
2023/03/09 11:57:15;;;;;;;0.60;0.60;;;15.90;97.30;;;;;;5068926;28;20819;-73
2023/03/09 11:59:59;;;;;;;22.73;11.80;;;15.80;97.10;;;;;;5072966;28;20388;-72
2023/03/09 12:02:46;;;;;;;2.20;1.47;;;15.70;97.00;;;;;;5075287;28;20458;-72
2023/03/09 12:05:14;;;;;;;1.23;0.73;;;15.60;97.30;;;;;;5074642;28;20459;-72
2023/03/09 12:07:59;;;;;;;0.93;0.50;;;15.60;97.10;;;;;;5074324;28;20421;-74
2023/03/09 12:10:31;;;;;;;0.80;0.77;;;15.50;97.30;;;;;;5070814;28;20392;-69
2023/03/09 12:13:19;;;;;;;1.07;0.97;;;15.40;97.10;;;;;;5074405;28;20375;-72
2023/03/09 12:16:18;;;;;;;1.60;0.73;;;15.50;97.30;;;;;;5074253;28;20432;-73
2023/03/09 12:18:58;;;;;;;0.60;0.50;;;15.60;97.70;;;;;;5066579;28;20444;-72
2023/03/09 12:21:36;;;;;;;1.37;0.70;;;15.70;97.70;;;;;;5074164;28;20818;-73
2023/03/09 12:24:23;;;;;;;2.73;0.80;;;15.80;97.30;;;;;;5073907;28;20437;-72
2023/03/09 12:27:01;;;;;;;2.20;0.90;;;15.70;97.70;;;;;;5066889;28;20465;-73
2023/03/09 12:29:59;;;;;;;3.30;0.80;;;15.70;97.90;;;;;;5072811;28;20428;-72
2023/03/09 12:32:24;;;;;;;2.13;1.17;;;15.80;98.10;;;;;;5048540;28;20459;-70
2023/03/09 12:34:52;;;;;;;1.20;0.93;;;15.80;97.70;;;;;;5073273;28;20745;-73
2023/03/09 12:37:30;;;;;;;2.47;0.93;;;15.90;97.80;;;;;;5074089;28;20210;-72
2023/03/09 12:40:21;;;;;;;0.60;0.60;;;16.00;97.70;;;;;;5073792;28;20459;-71
2023/03/09 12:42:49;;;;;;;1.47;0.80;;;16.10;97.60;;;;;;5065600;28;20946;-72
2023/03/09 12:45:20;;;;;;;7.47;1.90;;;16.10;96.80;;;;;;5073804;28;20873;-72
2023/03/09 12:47:57;;;;;;;1.33;0.60;;;16.00;96.80;;;;;;5074137;28;20449;-72
2023/03/09 12:50:29;;;;;;;0.40;0.40;;;16.00;97.30;;;;;;5073763;28;20757;-71
2023/03/09 12:53:13;;;;;;;3.37;1.63;;;15.90;97.50;;;;;;5073363;28;20566;-73
2023/03/09 12:55:38;;;;;;;4.47;2.20;;;16.00;97.40;;;;;;5073947;28;20814;-72
2023/03/09 12:58:19;;;;;;;10.63;4.87;;;16.00;97.00;;;;;;5073291;28;20388;-71
2023/03/09 13:01:03;;;;;;;2.10;1.80;;;16.00;96.70;;;;;;5072242;28;20658;-73
2023/03/09 13:03:50;;;;;;;0.93;0.77;;;16.00;96.70;;;;;;5069349;28;20910;-73
2023/03/09 13:06:34;;;;;;;1.80;0.80;;;16.00;96.70;;;;;;5073610;28;20434;-73
2023/03/09 13:09:03;;;;;;;1.10;0.70;;;16.10;96.70;;;;;;5073595;28;20785;-72
2023/03/09 13:11:57;;;;;;;2.77;0.77;;;16.20;96.50;;;;;;5075208;28;20485;-72
2023/03/09 13:14:25;;;;;;;3.33;2.53;;;16.20;96.00;;;;;;5063755;28;20437;-71
2023/03/09 13:16:58;;;;;;;5.47;3.47;;;16.20;96.40;;;;;;5073134;28;20424;-71
2023/03/09 13:19:23;;;;;;;0.83;0.60;;;16.10;96.30;;;;;;5073973;28;20425;-72
2023/03/09 13:21:57;;;;;;;1.33;0.60;;;16.00;96.30;;;;;;5072758;28;20420;-72
2023/03/09 13:24:40;;;;;;;1.43;1.33;;;15.90;96.80;;;;;;5070782;28;20246;-70
2023/03/09 13:27:17;;;;;;;1.50;0.60;;;15.80;97.20;;;;;;5071355;28;20466;-71
2023/03/09 13:29:51;;;;;;;2.00;0.80;;;15.60;96.90;;;;;;5072824;28;20965;-70
2023/03/09 13:32:41;;;;;;;1.27;1.00;;;15.50;97.00;;;;;;5072911;28;20469;-71
2023/03/09 13:35:17;;;;;;;0.87;0.83;;;15.30;96.90;;;;;;5072442;28;20438;-71
2023/03/09 13:37:45;;;;;;;0.87;0.83;;;15.20;96.90;;;;;;5073236;28;20434;-72
2023/03/09 13:40:23;;;;;;;0.53;0.53;;;15.10;97.00;;;;;;5073471;28;20435;-69
2023/03/09 13:42:49;;;;;;;0.70;0.70;;;15.00;97.30;;;;;;5072330;28;20425;-72
2023/03/09 13:45:24;;;;;;;0.67;0.67;;;15.00;97.60;;;;;;5073140;28;20459;-71
2023/03/09 13:47:58;;;;;;;1.10;0.60;;;14.90;97.90;;;;;;5072920;28;20421;-71
2023/03/09 13:50:27;;;;;;;0.70;0.70;;;14.90;98.00;;;;;;5073040;28;20414;-72
2023/03/09 13:53:03;;;;;;;0.93;0.80;;;14.80;98.00;;;;;;5070736;28;20426;-69
2023/03/09 13:55:30;;;;;;;0.83;0.83;;;14.80;98.30;;;;;;5072798;28;20434;-71
2023/03/09 13:58:15;;;;;;;3.43;1.13;;;14.70;98.40;;;;;;5073201;28;20403;-72
2023/03/09 14:00:52;;;;;;;0.53;0.53;;;14.50;98.50;;;;;;5071373;28;20817;-72
2023/03/09 14:03:18;;;;;;;1.00;0.47;;;14.40;98.60;;;;;;5072739;28;20766;-72
2023/03/09 14:05:57;;;;;;;1.33;1.10;;;14.30;98.80;;;;;;5070837;28;20469;-71
2023/03/09 14:08:24;;;;;;;1.10;1.10;;;14.20;99.70;;;;;;5071441;28;20261;-72
2023/03/09 14:10:50;;;;;;;1.33;0.77;;;14.20;99.90;;;;;;5072659;28;20467;-69
2023/03/09 14:13:25;;;;;;;2.70;1.03;;;14.00;99.90;;;;;;5070669;28;20429;-71
2023/03/09 14:16:06;;;;;;;1.00;1.00;;;14.10;99.90;;;;;;5072727;28;20434;-71
2023/03/09 14:18:50;;;;;;;2.57;0.80;;;14.00;99.90;;;;;;5062496;28;20424;-72
2023/03/09 14:21:23;;;;;;;0.90;0.70;;;14.10;99.90;;;;;;5072278;28;20442;-71
2023/03/09 14:23:49;;;;;;;0.70;0.70;;;14.20;99.90;;;;;;5070835;28;20828;-71
2023/03/09 14:26:30;;;;;;;3.23;1.53;;;14.20;99.90;;;;;;5072363;28;20462;-73
2023/03/09 14:29:01;;;;;;;0.80;0.80;;;14.20;99.90;;;;;;5069656;28;20406;-72
2023/03/09 14:31:27;;;;;;;1.43;1.07;;;14.30;99.90;;;;;;5072229;28;20518;-70
2023/03/09 14:34:04;;;;;;;3.83;2.10;;;14.40;99.90;;;;;;5071912;28;20498;-73
2023/03/09 14:36:37;;;;;;;1.43;0.90;;;14.50;99.90;;;;;;5069538;28;20224;-73
2023/03/09 14:39:26;;;;;;;1.27;0.73;;;14.40;99.90;;;;;;5062834;28;20423;-72
2023/03/09 14:42:11;;;;;;;1.30;0.93;;;14.60;99.90;;;;;;5071934;28;20425;-71
2023/03/09 14:44:42;;;;;;;6.23;1.47;;;14.60;99.90;;;;;;5062714;28;20423;-71
2023/03/09 14:47:17;;;;;;;4.00;0.97;;;14.60;99.90;;;;;;5071225;28;20997;-73
2023/03/09 14:49:50;;;;;;;1.07;0.70;;;14.60;99.90;;;;;;5071871;28;20501;-70
2023/03/09 14:52:17;;;;;;;1.13;0.80;;;14.60;99.90;;;;;;5071637;28;20411;-72
2023/03/09 14:54:43;;;;;;;1.83;1.73;;;14.50;99.90;;;;;;5070661;28;20855;-69
2023/03/09 14:57:14;;;;;;;1.83;1.10;;;14.60;99.90;;;;;;5075392;28;20445;-71
2023/03/09 14:59:40;;;;;;;0.80;0.70;;;14.70;99.90;;;;;;5075271;28;20431;-72
2023/03/09 15:02:08;;;;;;;1.40;0.80;;;14.80;99.90;;;;;;5075390;28;20482;-70
2023/03/09 15:04:35;;;;;;;1.07;0.83;;;15.00;99.90;;;;;;5074599;28;20449;-71
2023/03/09 15:07:03;;;;;;;20.37;1.10;;;15.00;99.50;;;;;;5075540;28;20470;-71
2023/03/09 15:09:29;;;;;;;3.43;1.30;;;15.10;99.20;;;;;;5068514;28;20467;-72
2023/03/09 15:11:58;;;;;;;2.63;1.13;;;15.10;99.40;;;;;;5075071;28;20430;-70
2023/03/09 15:14:36;;;;;;;1.90;0.70;;;15.10;99.30;;;;;;5074550;28;20442;-70
2023/03/09 15:17:03;;;;;;;0.77;0.77;;;15.10;99.40;;;;;;5075369;28;20423;-70
2023/03/09 15:19:30;;;;;;;0.70;0.63;;;15.00;99.50;;;;;;5075408;28;20557;-71
2023/03/09 15:21:58;;;;;;;5.90;1.10;;;14.80;99.50;;;;;;5074515;28;20900;-70
2023/03/09 15:24:25;;;;;;;0.97;0.83;;;14.70;99.90;;;;;;5074575;28;20441;-71
2023/03/09 15:26:51;;;;;;;4.93;1.37;;;14.60;99.90;;;;;;5074507;28;20810;-70
2023/03/09 15:29:18;;;;;;;4.43;1.30;;;14.50;99.80;;;;;;5074868;28;20415;-70
2023/03/09 15:31:43;;;;;;;0.60;0.60;;;14.40;99.80;;;;;;5075501;28;20820;-70
2023/03/09 15:34:09;;;;;;;3.27;2.00;;;14.30;99.90;;;;;;5074138;28;20439;-69
2023/03/09 15:36:35;;;;;;;4.50;3.10;;;14.20;99.90;;;;;;5075077;28;20189;-71
2023/03/09 15:39:00;;;;;;;6.60;4.90;;;14.10;99.90;;;;;;5072899;28;20180;-71
2023/03/09 15:41:26;;;;;;;1.93;1.30;;;14.10;99.90;;;;;;5074491;28;20180;-69
2023/03/09 15:43:52;;;;;;;2.50;1.43;;;14.10;99.90;;;;;;5074451;28;20200;-71
2023/03/09 15:46:18;;;;;;;0.93;0.93;;;14.00;99.90;;;;;;5073992;28;20228;-70
2023/03/09 15:48:44;;;;;;;1.40;1.30;;;14.00;99.90;;;;;;5074755;28;20873;-71
2023/03/09 15:51:09;;;;;;;2.40;1.00;;;14.00;99.90;;;;;;5074786;28;20426;-71
2023/03/09 15:53:35;;;;;;;2.10;0.73;;;14.00;99.90;;;;;;5073973;28;20180;-70
2023/03/09 15:56:06;;;;;;;3.43;1.50;;;14.00;99.90;;;;;;5074521;28;20180;-70
2023/03/09 15:58:35;;;;;;;0.80;0.70;;;14.10;99.90;;;;;;5074829;28;20180;-72
2023/03/09 16:01:03;;;;;;;1.73;1.07;;;14.00;99.90;;;;;;5073799;28;20458;-70
2023/03/09 16:03:30;;;;;;;2.30;1.13;;;14.00;99.90;;;;;;5074001;28;20428;-71
2023/03/09 16:05:56;;;;;;;0.57;0.57;;;14.10;99.90;;;;;;5073761;28;20462;-70
2023/03/09 16:08:22;;;;;;;1.03;0.60;;;14.10;99.90;;;;;;5074861;28;20413;-70
2023/03/09 16:10:48;;;;;;;7.30;1.13;;;14.10;99.90;;;;;;5074695;28;20436;-70
2023/03/09 16:13:15;;;;;;;1.10;1.00;;;14.10;99.80;;;;;;5074019;28;20240;-70
2023/03/09 16:15:41;;;;;;;0.90;0.53;;;14.20;99.80;;;;;;5074351;28;20467;-71
2023/03/09 16:18:07;;;;;;;4.73;1.13;;;14.20;99.80;;;;;;5074362;28;20431;-69
2023/03/09 16:20:33;;;;;;;3.70;1.00;;;14.20;99.80;;;;;;5074470;28;20828;-70
2023/03/09 16:22:59;;;;;;;1.20;1.10;;;14.20;99.40;;;;;;5073833;28;20492;-69
2023/03/09 16:25:25;;;;;;;1.30;1.10;;;14.30;99.50;;;;;;5073844;28;20466;-69
2023/03/09 16:27:50;;;;;;;2.77;1.50;;;14.20;99.40;;;;;;5073961;28;20437;-69
2023/03/09 16:30:17;;;;;;;3.43;2.73;;;14.20;99.50;;;;;;5073822;28;20441;-71
2023/03/09 16:32:43;;;;;;;2.90;1.50;;;14.10;99.50;;;;;;5074522;28;20187;-70
2023/03/09 16:35:11;;;;;;;1.77;1.60;;;14.10;99.60;;;;;;5073785;28;20797;-69
2023/03/09 16:37:36;;;;;;;3.87;2.50;;;14.00;99.60;;;;;;5073730;28;20426;-70
2023/03/09 16:40:04;;;;;;;1.27;0.80;;;13.90;99.50;;;;;;5073824;28;20474;-70
2023/03/09 16:42:31;;;;;;;2.53;0.97;;;13.90;99.50;;;;;;5074034;28;20475;-68
2023/03/09 16:44:57;;;;;;;2.67;1.30;;;13.80;99.60;;;;;;5072318;28;20461;-72
2023/03/09 16:47:23;;;;;;;5.43;1.43;;;13.70;99.90;;;;;;5074101;28;20414;-70
2023/03/09 16:49:54;;;;;;;4.60;2.97;;;13.60;99.80;;;;;;5073480;28;20189;-70
2023/03/09 16:52:19;;;;;;;56.17;33.37;;;13.50;99.90;;;;;;5073673;28;20399;-69
2023/03/09 16:54:45;;;;;;;8.40;6.10;;;13.40;99.90;;;;;;5071435;28;20438;-69
2023/03/09 16:57:11;;;;;;;11.10;4.60;;;13.20;99.80;;;;;;5073479;28;20263;-69
2023/03/09 16:59:36;;;;;;;8.97;4.30;;;13.20;99.80;;;;;;5072561;28;20959;-69
2023/03/09 17:02:02;;;;;;;3.90;3.60;;;13.10;99.90;;;;;;5073290;28;20172;-70
2023/03/09 17:04:28;;;;;;;2.93;2.07;;;13.00;99.90;;;;;;5072741;28;20534;-70
2023/03/09 17:06:53;;;;;;;4.20;1.67;;;12.90;99.90;;;;;;5073043;28;20477;-69
2023/03/09 17:09:19;;;;;;;9.93;6.57;;;12.80;99.90;;;;;;5073213;28;20182;-69
2023/03/09 17:11:45;;;;;;;8.00;5.93;;;12.80;99.90;;;;;;5073398;28;20186;-69
2023/03/09 17:14:13;;;;;;;12.97;7.10;;;12.80;99.90;;;;;;5072982;28;20203;-70
2023/03/09 17:16:39;;;;;;;2.57;1.70;;;12.70;99.90;;;;;;5073599;28;20193;-69
2023/03/09 17:19:05;;;;;;;4.33;3.93;;;12.70;99.80;;;;;;5072604;28;20426;-69
2023/03/09 17:21:31;;;;;;;14.53;8.40;;;12.70;99.90;;;;;;5072922;28;20728;-69
2023/03/09 17:23:57;;;;;;;3.67;2.93;;;12.60;99.90;;;;;;5071788;28;20236;-69
2023/03/09 17:26:22;;;;;;;8.20;3.83;;;12.50;99.90;;;;;;5070726;28;20258;-69
2023/03/09 17:28:48;;;;;;;2.63;1.40;;;12.40;99.90;;;;;;5073222;28;20905;-69
2023/03/09 17:31:18;;;;;;;2.77;1.00;;;12.30;99.90;;;;;;5072995;28;20236;-69
2023/03/09 17:33:45;;;;;;;2.22;1.05;;;12.20;99.90;;;;;;5072580;28;20228;-69
2023/03/09 17:36:12;;;;;;;3.30;2.70;;;12.10;99.90;;;;;;5073262;28;20209;-69
2023/03/09 17:38:38;;;;;;;0.90;0.90;;;12.00;99.90;;;;;;5073112;28;20470;-69
2023/03/09 17:41:07;;;;;;;1.70;0.95;;;12.00;99.90;;;;;;5072197;28;20428;-70
2023/03/09 17:43:33;;;;;;;1.10;1.00;;;11.90;99.90;;;;;;5072763;28;20243;-67
2023/03/09 17:46:05;;;;;;;4.60;1.53;;;11.90;99.90;;;;;;5072430;28;20467;-69
2023/03/09 17:48:32;;;;;;;2.83;1.63;;;11.90;99.90;;;;;;5072657;28;20490;-69
2023/03/09 17:51:00;;;;;;;2.83;1.30;;;11.80;99.90;;;;;;5072323;28;20571;-69
2023/03/09 17:53:27;;;;;;;4.32;1.55;;;11.70;99.90;;;;;;5071698;28;20428;-69
2023/03/09 17:55:54;;;;;;;1.52;1.42;;;11.60;99.90;;;;;;5071643;28;20205;-70
2023/03/09 17:58:20;;;;;;;1.58;0.95;;;11.60;99.90;;;;;;5072281;28;20285;-70
2023/03/09 18:00:45;;;;;;;1.63;1.53;;;11.50;99.90;;;;;;5072674;28;20704;-69
2023/03/09 18:03:11;;;;;;;3.80;2.03;;;11.40;99.90;;;;;;5072492;28;20177;-69
2023/03/09 18:05:36;;;;;;;1.10;1.00;;;11.40;99.90;;;;;;5070845;28;20236;-67
2023/03/09 18:08:03;;;;;;;1.20;1.03;;;11.30;99.90;;;;;;5070781;28;20663;-67